createdAt,value
2023-01-19T00:00:56.382Z,51.179222
2023-01-19T00:01:56.313Z,51.179207
2023-01-19T00:02:56.391Z,51.179222
2023-01-19T00:03:56.292Z,51.179245
2023-01-19T00:04:56.305Z,51.179222
2023-01-19T00:05:56.342Z,51.179207
2023-01-19T00:06:56.299Z,51.179245
2023-01-19T00:07:56.260Z,51.179276
2023-01-19T00:08:56.254Z,51.179276
2023-01-19T00:09:56.264Z,51.179234
2023-01-19T00:10:56.228Z,51.179184
2023-01-19T00:11:56.250Z,51.179203
2023-01-19T00:12:56.232Z,51.179226
2023-01-19T00:13:56.183Z,51.179218
2023-01-19T00:14:56.184Z,51.179230
2023-01-19T00:15:56.212Z,51.179272
2023-01-19T00:16:56.190Z,51.179260
2023-01-19T00:17:56.157Z,51.179237
2023-01-19T00:18:56.170Z,51.179234
2023-01-19T00:19:56.127Z,51.179264
2023-01-19T00:20:56.135Z,51.179249
2023-01-19T00:21:56.128Z,51.179245
2023-01-19T00:22:56.123Z,51.179245
2023-01-19T00:23:56.078Z,51.179276
2023-01-19T00:24:56.087Z,51.179279
2023-01-19T00:25:56.098Z,51.179245
2023-01-19T00:26:56.043Z,51.179230
2023-01-19T00:27:57.132Z,51.179272
2023-01-19T00:28:56.052Z,51.179283
2023-01-19T00:29:56.005Z,51.179260
2023-01-19T00:30:56.021Z,51.179260
2023-01-19T00:31:56.042Z,51.179245
2023-01-19T00:32:55.998Z,51.179214
2023-01-19T00:33:55.992Z,51.179188
2023-01-19T00:34:55.976Z,51.179237
2023-01-19T00:35:55.986Z,51.179218
2023-01-19T00:36:55.983Z,51.179192
2023-01-19T00:37:55.927Z,51.179207
2023-01-19T00:38:55.946Z,51.179256
2023-01-19T00:39:55.965Z,51.179260
2023-01-19T00:40:55.915Z,51.179260
2023-01-19T00:41:55.881Z,51.179245
2023-01-19T00:42:55.909Z,51.179237
2023-01-19T00:43:55.869Z,51.179298
2023-01-19T00:44:55.880Z,51.179268
2023-01-19T00:45:55.944Z,51.179230
2023-01-19T00:46:55.846Z,51.179253
2023-01-19T00:47:55.832Z,51.179184
2023-01-19T00:48:55.823Z,51.179176
2023-01-19T00:49:56.054Z,51.179207
2023-01-19T00:50:55.792Z,51.179207
2023-01-19T00:51:55.828Z,51.179241
2023-01-19T00:52:55.798Z,51.179237
2023-01-19T00:53:55.779Z,51.179249
2023-01-19T00:54:55.769Z,51.179291
2023-01-19T00:55:55.777Z,51.179314
2023-01-19T00:56:55.758Z,51.179291
2023-01-19T00:57:55.723Z,51.179268
2023-01-19T00:58:55.741Z,51.179276
2023-01-19T00:59:55.691Z,51.179226
2023-01-19T01:00:55.764Z,51.179237
2023-01-19T01:01:55.902Z,51.179249
2023-01-19T01:02:55.740Z,51.179279
2023-01-19T01:03:55.684Z,51.179272
2023-01-19T01:04:55.723Z,51.179276
2023-01-19T01:05:55.664Z,51.179256
2023-01-19T01:06:55.635Z,51.179272
2023-01-19T01:07:56.627Z,51.179283
2023-01-19T01:08:55.618Z,51.179287
2023-01-19T01:09:55.626Z,51.179287
2023-01-19T01:10:55.594Z,51.179256
2023-01-19T01:11:55.568Z,51.179276
2023-01-19T01:12:57.735Z,51.179268
2023-01-19T01:13:55.587Z,51.179253
2023-01-19T01:14:55.539Z,51.179283
2023-01-19T01:15:55.561Z,51.179214
2023-01-19T01:16:55.526Z,51.179184
2023-01-19T01:17:55.495Z,51.179264
2023-01-19T01:18:55.527Z,51.179291
2023-01-19T01:19:55.507Z,51.179306
2023-01-19T01:20:56.412Z,51.179302
2023-01-19T01:21:56.467Z,51.179352
2023-01-19T01:22:55.513Z,51.179310
2023-01-19T01:23:55.431Z,51.179180
2023-01-19T01:24:55.449Z,51.179256
2023-01-19T01:25:55.440Z,51.179314
2023-01-19T01:26:55.420Z,51.179359
2023-01-19T01:27:55.410Z,51.179310
2023-01-19T01:28:55.393Z,51.179321
2023-01-19T01:29:55.420Z,51.179325
2023-01-19T01:30:55.356Z,51.179317
2023-01-19T01:31:55.467Z,51.179302
2023-01-19T01:32:55.362Z,51.179253
2023-01-19T01:33:55.329Z,51.179268
2023-01-19T01:34:55.349Z,51.179295
2023-01-19T01:35:55.340Z,51.179306
2023-01-19T01:36:55.319Z,51.179283
2023-01-19T01:37:55.291Z,51.179291
2023-01-19T01:38:55.307Z,51.179321
2023-01-19T01:39:55.291Z,51.179321
2023-01-19T01:40:55.267Z,51.179329
2023-01-19T01:41:56.025Z,51.179409
2023-01-19T01:42:55.251Z,51.179428
2023-01-19T01:43:55.261Z,51.179409
2023-01-19T01:44:55.231Z,51.179363
2023-01-19T01:45:55.260Z,51.179352
2023-01-19T01:46:55.220Z,51.179317
2023-01-19T01:47:55.196Z,51.179279
2023-01-19T01:48:55.196Z,51.179230
2023-01-19T01:49:55.196Z,51.179222
2023-01-19T01:50:55.174Z,51.179256
2023-01-19T01:51:55.132Z,51.179287
2023-01-19T01:53:06.724Z,51.179333
2023-01-19T01:53:56.173Z,51.179359
2023-01-19T01:54:55.106Z,51.179356
2023-01-19T01:55:55.127Z,51.179321
2023-01-19T01:56:55.113Z,51.179333
2023-01-19T01:57:55.072Z,51.179329
2023-01-19T01:58:55.071Z,51.179268
2023-01-19T01:59:55.082Z,51.179417
2023-01-19T02:00:55.143Z,51.179245
2023-01-19T02:01:55.144Z,51.179283
2023-01-19T02:02:55.277Z,51.179283
2023-01-19T02:03:55.016Z,51.179276
2023-01-19T02:04:55.014Z,51.179317
2023-01-19T02:05:55.025Z,51.179321
2023-01-19T02:06:55.014Z,51.179333
2023-01-19T02:07:54.985Z,51.179306
2023-01-19T02:08:54.967Z,51.179298
2023-01-19T02:09:54.981Z,51.179310
2023-01-19T02:10:54.986Z,51.179306
2023-01-19T02:11:54.941Z,51.179253
2023-01-19T02:12:54.924Z,51.179287
2023-01-19T02:13:54.937Z,51.179268
2023-01-19T02:14:54.918Z,51.179226
2023-01-19T02:15:54.879Z,51.179249
2023-01-19T02:16:54.965Z,51.179306
2023-01-19T02:17:54.897Z,51.179268
2023-01-19T02:18:54.845Z,51.179256
2023-01-19T02:19:54.877Z,51.179237
2023-01-19T02:20:54.859Z,51.179214
2023-01-19T02:21:54.833Z,51.179260
2023-01-19T02:22:54.817Z,51.179264
2023-01-19T02:23:54.880Z,51.179245
2023-01-19T02:24:54.811Z,51.179264
2023-01-19T02:25:54.787Z,51.179249
2023-01-19T02:26:54.806Z,51.179260
2023-01-19T02:27:54.753Z,51.179222
2023-01-19T02:28:54.751Z,51.179226
2023-01-19T02:29:54.763Z,51.179218
2023-01-19T02:30:54.807Z,51.179253
2023-01-19T02:31:54.716Z,51.179264
2023-01-19T02:32:54.717Z,51.179268
2023-01-19T02:33:54.721Z,51.179272
2023-01-19T02:34:54.674Z,51.179268
2023-01-19T02:35:54.718Z,51.179245
2023-01-19T02:36:54.682Z,51.179237
2023-01-19T02:37:55.642Z,51.179253
2023-01-19T02:38:54.645Z,51.179256
2023-01-19T02:39:54.653Z,51.179291
2023-01-19T02:40:54.639Z,51.179287
2023-01-19T02:41:54.602Z,51.179207
2023-01-19T02:42:54.602Z,51.179245
2023-01-19T02:43:54.609Z,51.179253
2023-01-19T02:44:54.590Z,51.179264
2023-01-19T02:45:54.601Z,51.179287
2023-01-19T02:46:54.576Z,51.179295
2023-01-19T02:47:54.571Z,51.179276
2023-01-19T02:48:54.549Z,51.179272
2023-01-19T02:49:54.515Z,51.179276
2023-01-19T02:50:55.125Z,51.179291
2023-01-19T02:51:54.526Z,51.179283
2023-01-19T02:52:54.499Z,51.179272
2023-01-19T02:53:54.513Z,51.179253
2023-01-19T02:54:54.489Z,51.179276
2023-01-19T02:55:54.478Z,51.179276
2023-01-19T02:56:54.475Z,51.179226
2023-01-19T02:57:54.509Z,51.179264
2023-01-19T02:58:54.433Z,51.179234
2023-01-19T02:59:54.460Z,51.179207
2023-01-19T03:00:54.498Z,51.179211
2023-01-19T03:01:54.454Z,51.179192
2023-01-19T03:02:54.427Z,51.179199
2023-01-19T03:03:54.430Z,51.179188
2023-01-19T03:04:54.388Z,51.179180
2023-01-19T03:05:54.364Z,51.179176
2023-01-19T03:06:54.393Z,51.179207
2023-01-19T03:07:54.351Z,51.179207
2023-01-19T03:08:54.353Z,51.179222
2023-01-19T03:09:54.349Z,51.179283
2023-01-19T03:10:54.327Z,51.179234
2023-01-19T03:11:54.313Z,51.179241
2023-01-19T03:12:54.308Z,51.179237
2023-01-19T03:13:54.321Z,51.179234
2023-01-19T03:14:54.287Z,51.179230
2023-01-19T03:15:54.380Z,51.179184
2023-01-19T03:16:54.309Z,51.179176
2023-01-19T03:17:54.264Z,51.179131
2023-01-19T03:18:54.241Z,51.179146
2023-01-19T03:19:54.224Z,51.179131
2023-01-19T03:20:54.240Z,51.179169
2023-01-19T03:21:54.221Z,51.179150
2023-01-19T03:22:54.180Z,51.179214
2023-01-19T03:23:54.196Z,51.179226
2023-01-19T03:24:54.187Z,51.179207
2023-01-19T03:25:54.157Z,51.179203
2023-01-19T03:26:54.157Z,51.179195
2023-01-19T03:27:54.157Z,51.179218
2023-01-19T03:28:54.134Z,51.179256
2023-01-19T03:29:54.104Z,51.179245
2023-01-19T03:30:54.145Z,51.179214
2023-01-19T03:31:54.132Z,51.179188
2023-01-19T03:32:54.081Z,51.179157
2023-01-19T03:33:54.096Z,51.179218
2023-01-19T03:34:54.074Z,51.179207
2023-01-19T03:35:54.037Z,51.179195
2023-01-19T03:36:54.048Z,51.179264
2023-01-19T03:37:54.066Z,51.179264
2023-01-19T03:38:54.000Z,51.179256
2023-01-19T03:39:54.019Z,51.179237
2023-01-19T03:40:54.012Z,51.179203
2023-01-19T03:41:53.986Z,51.179188
2023-01-19T03:42:53.990Z,51.179218
2023-01-19T03:43:53.986Z,51.179226
2023-01-19T03:44:53.966Z,51.179245
2023-01-19T03:45:53.949Z,51.179253
2023-01-19T03:46:53.939Z,51.179279
2023-01-19T03:47:53.952Z,51.179268
2023-01-19T03:48:53.910Z,51.179264
2023-01-19T03:49:53.923Z,51.179241
2023-01-19T03:50:53.880Z,51.179234
2023-01-19T03:51:53.896Z,51.179226
2023-01-19T03:52:53.891Z,51.179218
2023-01-19T03:53:53.856Z,51.179222
2023-01-19T03:54:53.860Z,51.179230
2023-01-19T03:55:53.819Z,51.179260
2023-01-19T03:56:54.820Z,51.179272
2023-01-19T03:57:54.823Z,51.179211
2023-01-19T03:58:55.600Z,51.179211
2023-01-19T03:59:53.777Z,51.179180
2023-01-19T04:00:53.811Z,51.179230
2023-01-19T04:01:53.869Z,51.179237
2023-01-19T04:02:53.772Z,51.179272
2023-01-19T04:03:53.761Z,51.179283
2023-01-19T04:04:53.751Z,51.179310
2023-01-19T04:05:53.705Z,51.179268
2023-01-19T04:06:53.721Z,51.179203
2023-01-19T04:07:53.769Z,51.179192
2023-01-19T04:08:53.708Z,51.179184
2023-01-19T04:09:53.672Z,51.179245
2023-01-19T04:10:53.691Z,51.179211
2023-01-19T04:11:53.661Z,51.179234
2023-01-19T04:12:53.662Z,51.179245
2023-01-19T04:13:53.678Z,51.179264
2023-01-19T04:14:53.647Z,51.179245
2023-01-19T04:15:53.621Z,51.179218
2023-01-19T04:16:53.631Z,51.179234
2023-01-19T04:17:53.613Z,51.179234
2023-01-19T04:18:53.569Z,51.179241
2023-01-19T04:19:53.606Z,51.179241
2023-01-19T04:20:53.579Z,51.179218
2023-01-19T04:21:53.582Z,51.179241
2023-01-19T04:22:53.550Z,51.179157
2023-01-19T04:23:53.572Z,51.179173
2023-01-19T04:24:53.523Z,51.179241
2023-01-19T04:25:53.520Z,51.179241
2023-01-19T04:26:53.517Z,51.179237
2023-01-19T04:27:53.510Z,51.179218
2023-01-19T04:28:53.485Z,51.179184
2023-01-19T04:29:53.501Z,51.179153
2023-01-19T04:30:53.511Z,51.179161
2023-01-19T04:31:53.443Z,51.179184
2023-01-19T04:32:53.452Z,51.179192
2023-01-19T04:33:53.451Z,51.179192
2023-01-19T04:34:53.418Z,51.179161
2023-01-19T04:35:54.381Z,51.179092
2023-01-19T04:36:54.414Z,51.179203
2023-01-19T04:37:53.374Z,51.179256
2023-01-19T04:38:53.393Z,51.179249
2023-01-19T04:39:53.388Z,51.179207
2023-01-19T04:40:53.382Z,51.179176
2023-01-19T04:41:53.321Z,51.179127
2023-01-19T04:42:53.347Z,51.179092
2023-01-19T04:43:53.312Z,51.179176
2023-01-19T04:44:53.323Z,51.179199
2023-01-19T04:45:53.322Z,51.179230
2023-01-19T04:46:53.311Z,51.179241
2023-01-19T04:47:53.267Z,51.179226
2023-01-19T04:48:53.278Z,51.179230
2023-01-19T04:49:53.293Z,51.179245
2023-01-19T04:50:53.255Z,51.179253
2023-01-19T04:51:53.227Z,51.179176
2023-01-19T04:52:53.248Z,51.179211
2023-01-19T04:53:53.236Z,51.179291
2023-01-19T04:54:53.212Z,51.179272
2023-01-19T04:55:53.197Z,51.179268
2023-01-19T04:56:53.191Z,51.179253
2023-01-19T04:57:53.191Z,51.179241
2023-01-19T04:58:53.160Z,51.179214
2023-01-19T04:59:53.180Z,51.179283
2023-01-19T05:00:53.252Z,51.179241
2023-01-19T05:01:53.132Z,51.179272
2023-01-19T05:02:53.132Z,51.179306
2023-01-19T05:03:53.141Z,51.179302
2023-01-19T05:04:53.109Z,51.179230
2023-01-19T05:05:53.070Z,51.179207
2023-01-19T05:06:53.103Z,51.179203
2023-01-19T05:07:53.059Z,51.179234
2023-01-19T05:08:53.055Z,51.179253
2023-01-19T05:09:53.064Z,51.179253
2023-01-19T05:10:53.040Z,51.179226
2023-01-19T05:11:53.013Z,51.179184
2023-01-19T05:12:53.013Z,51.179237
2023-01-19T05:13:53.020Z,51.179249
2023-01-19T05:14:52.976Z,51.179241
2023-01-19T05:15:53.035Z,51.179249
2023-01-19T05:16:52.982Z,51.179218
2023-01-19T05:17:52.955Z,51.179218
2023-01-19T05:18:52.940Z,51.179211
2023-01-19T05:19:52.962Z,51.179192
2023-01-19T05:20:52.930Z,51.179176
2023-01-19T05:21:52.909Z,51.179226
2023-01-19T05:22:52.924Z,51.179230
2023-01-19T05:23:52.904Z,51.179184
2023-01-19T05:24:52.901Z,51.179180
2023-01-19T05:25:52.875Z,51.179203
2023-01-19T05:26:52.851Z,51.179230
2023-01-19T05:27:52.876Z,51.179268
2023-01-19T05:28:52.843Z,51.179234
2023-01-19T05:29:52.821Z,51.179237
2023-01-19T05:30:52.913Z,51.179211
2023-01-19T05:31:52.833Z,51.179234
2023-01-19T05:32:52.786Z,51.179249
2023-01-19T05:33:52.794Z,51.179249
2023-01-19T05:34:52.802Z,51.179279
2023-01-19T05:35:52.741Z,51.179260
2023-01-19T05:36:52.743Z,51.179260
2023-01-19T05:37:52.779Z,51.179264
2023-01-19T05:38:52.726Z,51.179226
2023-01-19T05:39:52.731Z,51.179253
2023-01-19T05:40:52.719Z,51.179245
2023-01-19T05:41:52.682Z,51.179222
2023-01-19T05:42:52.689Z,51.179188
2023-01-19T05:43:52.687Z,51.179234
2023-01-19T05:44:52.668Z,51.179253
2023-01-19T05:45:52.659Z,51.179253
2023-01-19T05:46:52.690Z,51.179222
2023-01-19T05:47:52.622Z,51.179222
2023-01-19T05:48:52.628Z,51.179211
2023-01-19T05:49:52.631Z,51.179230
2023-01-19T05:50:52.601Z,51.179260
2023-01-19T05:51:52.593Z,51.179249
2023-01-19T05:52:52.584Z,51.179245
2023-01-19T05:53:52.592Z,51.179218
2023-01-19T05:54:52.559Z,51.179234
2023-01-19T05:55:52.537Z,51.179264
2023-01-19T05:56:52.537Z,51.179256
2023-01-19T05:57:52.557Z,51.179241
2023-01-19T05:58:52.536Z,51.179195
2023-01-19T05:59:52.501Z,51.179150
2023-01-19T06:00:52.505Z,51.179169
2023-01-19T06:01:52.554Z,51.179241
2023-01-19T06:02:52.472Z,51.179260
2023-01-19T06:03:52.484Z,51.179291
2023-01-19T06:04:52.447Z,51.179291
2023-01-19T06:05:52.444Z,51.179268
2023-01-19T06:06:52.430Z,51.179268
2023-01-19T06:07:52.444Z,51.179245
2023-01-19T06:08:52.419Z,51.179234
2023-01-19T06:09:52.377Z,51.179234
2023-01-19T06:10:52.406Z,51.179230
2023-01-19T06:11:52.382Z,51.179188
2023-01-19T06:12:52.365Z,51.179211
2023-01-19T06:13:52.396Z,51.179230
2023-01-19T06:14:52.354Z,51.179222
2023-01-19T06:15:52.337Z,51.179214
2023-01-19T06:16:52.348Z,51.179199
2023-01-19T06:17:52.319Z,51.179237
2023-01-19T06:18:52.298Z,51.179260
2023-01-19T06:19:52.323Z,51.179192
2023-01-19T06:20:52.341Z,51.179195
2023-01-19T06:21:52.512Z,51.179222
2023-01-19T06:22:52.296Z,51.179203
2023-01-19T06:23:52.288Z,51.179195
2023-01-19T06:24:52.259Z,51.179241
2023-01-19T06:25:52.261Z,51.179207
2023-01-19T06:26:52.222Z,51.179184
2023-01-19T06:27:52.220Z,51.179176
2023-01-19T06:28:52.210Z,51.179184
2023-01-19T06:29:52.183Z,51.179218
2023-01-19T06:30:52.268Z,51.179283
2023-01-19T06:31:52.205Z,51.179268
2023-01-19T06:32:52.150Z,51.179237
2023-01-19T06:33:52.132Z,51.179226
2023-01-19T06:34:53.924Z,51.179234
2023-01-19T06:35:53.142Z,51.179192
2023-01-19T06:36:52.112Z,51.179226
2023-01-19T06:37:52.114Z,51.179268
2023-01-19T06:38:52.085Z,51.179283
2023-01-19T06:39:52.060Z,51.179222
2023-01-19T06:40:52.077Z,51.179241
2023-01-19T06:41:52.079Z,51.179237
2023-01-19T06:42:52.032Z,51.179207
2023-01-19T06:43:52.061Z,51.179211
2023-01-19T06:44:52.026Z,51.179237
2023-01-19T06:45:52.085Z,51.179218
2023-01-19T06:46:52.004Z,51.179218
2023-01-19T06:47:53.006Z,51.179245
2023-01-19T06:48:51.989Z,51.179230
2023-01-19T06:49:51.971Z,51.179237
2023-01-19T06:50:51.982Z,51.179234
2023-01-19T06:51:51.938Z,51.179192
2023-01-19T06:52:51.941Z,51.179218
2023-01-19T06:53:51.972Z,51.179207
2023-01-19T06:54:51.926Z,51.179211
2023-01-19T06:55:51.911Z,51.179234
2023-01-19T06:56:51.895Z,51.179260
2023-01-19T06:57:51.898Z,51.179241
2023-01-19T06:58:51.885Z,51.179253
2023-01-19T06:59:51.842Z,51.179249
2023-01-19T07:00:52.005Z,51.179241
2023-01-19T07:01:51.916Z,51.179237
2023-01-19T07:02:51.911Z,51.179245
2023-01-19T07:03:51.813Z,51.179211
2023-01-19T07:04:51.835Z,51.179245
2023-01-19T07:05:51.814Z,51.179260
2023-01-19T07:06:51.776Z,51.179237
2023-01-19T07:07:51.943Z,51.179234
2023-01-19T07:08:51.775Z,51.179234
2023-01-19T07:09:54.137Z,51.179226
2023-01-19T07:11:26.171Z,51.179230
2023-01-19T07:11:52.756Z,51.179249
2023-01-19T07:12:51.754Z,51.179241
2023-01-19T07:13:51.804Z,51.179214
2023-01-19T07:14:51.751Z,51.179226
2023-01-19T07:15:51.683Z,51.179218
2023-01-19T07:16:51.693Z,51.179245
2023-01-19T07:17:51.700Z,51.179268
2023-01-19T07:18:51.667Z,51.179264
2023-01-19T07:19:51.647Z,51.179272
2023-01-19T07:20:51.640Z,51.179283
2023-01-19T07:21:51.659Z,51.179314
2023-01-19T07:22:51.620Z,51.179283
2023-01-19T07:23:51.639Z,51.179291
2023-01-19T07:24:51.608Z,51.179256
2023-01-19T07:25:51.609Z,51.179214
2023-01-19T07:26:51.585Z,51.179279
2023-01-19T07:27:51.592Z,51.179283
2023-01-19T07:28:51.578Z,51.179276
2023-01-19T07:29:51.536Z,51.179276
2023-01-19T07:30:51.602Z,51.179279
2023-01-19T07:31:51.615Z,51.179256
2023-01-19T07:32:51.532Z,51.179272
2023-01-19T07:33:51.506Z,51.179279
2023-01-19T07:34:51.510Z,51.179268
2023-01-19T07:35:51.493Z,51.179272
2023-01-19T07:36:51.496Z,51.179298
2023-01-19T07:37:51.463Z,51.179279
2023-01-19T07:38:51.495Z,51.179253
2023-01-19T07:39:51.433Z,51.179241
2023-01-19T07:40:51.458Z,51.179249
2023-01-19T07:41:51.441Z,51.179207
2023-01-19T07:42:51.425Z,51.179214
2023-01-19T07:43:51.418Z,51.179264
2023-01-19T07:44:51.391Z,51.179237
2023-01-19T07:45:51.426Z,51.179234
2023-01-19T07:46:51.360Z,51.179272
2023-01-19T07:47:51.378Z,51.179298
2023-01-19T07:48:51.366Z,51.179291
2023-01-19T07:49:51.320Z,51.179272
2023-01-19T07:50:51.333Z,51.179222
2023-01-19T07:51:51.336Z,51.179188
2023-01-19T07:52:51.304Z,51.179241
2023-01-19T07:53:51.289Z,51.179256
2023-01-19T07:54:51.333Z,51.179272
2023-01-19T07:55:51.255Z,51.179276
2023-01-19T07:56:51.256Z,51.179291
2023-01-19T07:57:51.269Z,51.179321
2023-01-19T07:58:51.267Z,51.179310
2023-01-19T07:59:51.210Z,51.179279
2023-01-19T08:00:51.230Z,51.179287
2023-01-19T08:01:51.406Z,51.179325
2023-01-19T08:02:51.211Z,51.179283
2023-01-19T08:03:51.180Z,51.179298
2023-01-19T08:04:51.238Z,51.179363
2023-01-19T08:05:51.208Z,51.179390
2023-01-19T08:06:51.148Z,51.179321
2023-01-19T08:07:53.233Z,51.179234
2023-01-19T08:08:52.140Z,51.179310
2023-01-19T08:09:51.139Z,51.179348
2023-01-19T08:10:51.116Z,51.179317
2023-01-19T08:11:51.149Z,51.179306
2023-01-19T08:12:51.104Z,51.179298
2023-01-19T08:13:51.063Z,51.179298
2023-01-19T08:14:51.059Z,51.179283
2023-01-19T08:15:51.093Z,51.179295
2023-01-19T08:16:51.060Z,51.179295
2023-01-19T08:17:51.033Z,51.179279
2023-01-19T08:18:51.033Z,51.179291
2023-01-19T08:19:50.999Z,51.179268
2023-01-19T08:20:50.999Z,51.179184
2023-01-19T08:21:51.004Z,51.179222
2023-01-19T08:22:51.003Z,51.179260
2023-01-19T08:23:51.090Z,51.179260
2023-01-19T08:24:50.964Z,51.179245
2023-01-19T08:25:50.996Z,51.179218
2023-01-19T08:26:50.927Z,51.179211
2023-01-19T08:27:50.947Z,51.179264
2023-01-19T08:28:50.928Z,51.179260
2023-01-19T08:29:50.910Z,51.179256
2023-01-19T08:30:51.015Z,51.179241
2023-01-19T08:31:51.025Z,51.179245
2023-01-19T08:32:50.880Z,51.179272
2023-01-19T08:33:50.866Z,51.179249
2023-01-19T08:34:50.849Z,51.179245
2023-01-19T08:35:50.830Z,51.179253
2023-01-19T08:36:50.840Z,51.179245
2023-01-19T08:37:50.847Z,51.179276
2023-01-19T08:38:50.814Z,51.179256
2023-01-19T08:39:50.779Z,51.179253
2023-01-19T08:40:51.803Z,51.179256
2023-01-19T08:41:50.787Z,51.179272
2023-01-19T08:42:50.749Z,51.179226
2023-01-19T08:43:50.773Z,51.179241
2023-01-19T08:44:58.047Z,51.179291
2023-01-19T08:45:52.753Z,51.179272
2023-01-19T08:46:50.724Z,51.179268
2023-01-19T08:47:50.751Z,51.179249
2023-01-19T08:48:50.832Z,51.179237
2023-01-19T08:49:50.705Z,51.179245
2023-01-19T08:50:50.718Z,51.179245
2023-01-19T08:51:50.656Z,51.179230
2023-01-19T08:52:50.655Z,51.179256
2023-01-19T08:53:50.680Z,51.179253
2023-01-19T08:54:50.645Z,51.179260
2023-01-19T08:55:50.613Z,51.179253
2023-01-19T08:56:50.634Z,51.179264
2023-01-19T08:57:50.624Z,51.179256
2023-01-19T08:59:03.437Z,51.179256
2023-01-19T08:59:52.606Z,51.179241
2023-01-19T09:00:50.614Z,51.179253
2023-01-19T09:01:50.745Z,51.179245
2023-01-19T09:02:50.584Z,51.179207
2023-01-19T09:03:50.552Z,51.179214
2023-01-19T09:04:50.538Z,51.179218
2023-01-19T09:05:50.549Z,51.179207
2023-01-19T09:06:50.511Z,51.179207
2023-01-19T09:07:50.515Z,51.179214
2023-01-19T09:08:50.534Z,51.179207
2023-01-19T09:09:50.468Z,51.179241
2023-01-19T09:10:50.496Z,51.179260
2023-01-19T09:11:50.473Z,51.179256
2023-01-19T09:12:50.447Z,51.179264
2023-01-19T09:13:50.431Z,51.179249
2023-01-19T09:14:50.461Z,51.179241
2023-01-19T09:15:50.436Z,51.179241
2023-01-19T09:16:50.397Z,51.179222
2023-01-19T09:17:50.414Z,51.179237
2023-01-19T09:18:50.399Z,51.179207
2023-01-19T09:19:50.356Z,51.179195
2023-01-19T09:20:50.361Z,51.179192
2023-01-19T09:21:50.389Z,51.179230
2023-01-19T09:22:50.323Z,51.179218
2023-01-19T09:23:50.343Z,51.179226
2023-01-19T09:24:50.327Z,51.179218
2023-01-19T09:25:50.305Z,51.179218
2023-01-19T09:26:50.312Z,51.179188
2023-01-19T09:27:50.307Z,51.179199
2023-01-19T09:28:50.288Z,51.179207
2023-01-19T09:29:50.255Z,51.179245
2023-01-19T09:30:50.390Z,51.179245
2023-01-19T09:31:50.272Z,51.179272
2023-01-19T09:32:50.237Z,51.179241
2023-01-19T09:33:50.238Z,51.179222
2023-01-19T09:34:50.245Z,51.179226
2023-01-19T09:35:50.181Z,51.179260
2023-01-19T09:36:50.189Z,51.179249
2023-01-19T09:37:50.241Z,51.179249
2023-01-19T09:38:50.214Z,51.179230
2023-01-19T09:39:50.197Z,51.179245
2023-01-19T09:40:50.169Z,51.179234
2023-01-19T09:41:50.170Z,51.179245
2023-01-19T09:42:50.130Z,51.179268
2023-01-19T09:43:50.123Z,51.179249
2023-01-19T09:44:50.120Z,51.179234
2023-01-19T09:45:50.155Z,51.179241
2023-01-19T09:46:50.172Z,51.179218
2023-01-19T09:47:50.109Z,51.179222
2023-01-19T09:48:50.081Z,51.179195
2023-01-19T09:49:50.056Z,51.179173
2023-01-19T09:50:50.035Z,51.179157
2023-01-19T09:51:50.045Z,51.179173
2023-01-19T09:52:50.044Z,51.179195
2023-01-19T09:53:50.015Z,51.179214
2023-01-19T09:54:50.019Z,51.179211
2023-01-19T09:55:50.010Z,51.179241
2023-01-19T09:56:52.462Z,51.179241
2023-01-19T09:57:51.007Z,51.179222
2023-01-19T09:58:50.037Z,51.179214
2023-01-19T09:59:49.945Z,51.179207
2023-01-19T10:00:50.011Z,51.179176
2023-01-19T10:01:50.045Z,51.179203
2023-01-19T10:02:49.973Z,51.179230
2023-01-19T10:03:49.933Z,51.179253
2023-01-19T10:04:49.902Z,51.179245
2023-01-19T10:05:49.910Z,51.179241
2023-01-19T10:06:49.874Z,51.179214
2023-01-19T10:07:49.962Z,51.179195
2023-01-19T10:08:49.872Z,51.179207
2023-01-19T10:09:49.858Z,51.179203
2023-01-19T10:10:49.836Z,51.179241
2023-01-19T10:11:53.575Z,51.179134
2023-01-19T10:12:50.833Z,51.179150
2023-01-19T10:13:49.776Z,51.179115
2023-01-19T10:14:49.792Z,51.179127
2023-01-19T10:15:49.847Z,51.179180
2023-01-19T10:16:49.767Z,51.179222
2023-01-19T10:17:49.749Z,51.179234
2023-01-19T10:18:49.781Z,51.179214
2023-01-19T10:19:49.714Z,51.179222
2023-01-19T10:20:49.723Z,51.179207
2023-01-19T10:21:49.746Z,51.179203
2023-01-19T10:22:49.701Z,51.179176
2023-01-19T10:23:49.685Z,51.179161
2023-01-19T10:24:49.686Z,51.179176
2023-01-19T10:25:49.752Z,51.179199
2023-01-19T10:26:49.661Z,51.179169
2023-01-19T10:27:49.666Z,51.179207
2023-01-19T10:28:49.658Z,51.179188
2023-01-19T10:29:49.608Z,51.179211
2023-01-19T10:30:49.694Z,51.179146
2023-01-19T10:31:49.648Z,51.179165
2023-01-19T10:32:49.653Z,51.179173
2023-01-19T10:33:49.568Z,51.179199
2023-01-19T10:34:49.609Z,51.179214
2023-01-19T10:35:49.555Z,51.179253
2023-01-19T10:36:49.578Z,51.179260
2023-01-19T10:37:49.565Z,51.179226
2023-01-19T10:38:49.521Z,51.179195
2023-01-19T10:39:49.543Z,51.179192
2023-01-19T10:40:49.527Z,51.179111
2023-01-19T10:41:49.580Z,51.179195
2023-01-19T10:42:49.497Z,51.179203
2023-01-19T10:43:49.499Z,51.179188
2023-01-19T10:44:49.487Z,51.179173
2023-01-19T10:45:49.491Z,51.179134
2023-01-19T10:46:50.437Z,51.179131
2023-01-19T10:47:49.500Z,51.179127
2023-01-19T10:48:49.426Z,51.179180
2023-01-19T10:49:49.428Z,51.179207
2023-01-19T10:50:49.499Z,51.179180
2023-01-19T10:51:49.374Z,51.179207
2023-01-19T10:52:49.399Z,51.179207
2023-01-19T10:53:49.390Z,51.179203
2023-01-19T10:54:49.435Z,51.179218
2023-01-19T10:55:49.403Z,51.179157
2023-01-19T10:56:50.367Z,51.179203
2023-01-19T10:57:49.365Z,51.179222
2023-01-19T10:58:49.356Z,51.179237
2023-01-19T10:59:49.323Z,51.179241
2023-01-19T11:00:49.420Z,51.179218
2023-01-19T11:01:49.429Z,51.179214
2023-01-19T11:02:49.310Z,51.179199
2023-01-19T11:03:49.306Z,51.179207
2023-01-19T11:04:50.149Z,51.179211
2023-01-19T11:05:50.224Z,51.179207
2023-01-19T11:06:49.263Z,51.179214
2023-01-19T11:07:49.210Z,51.179218
2023-01-19T11:08:49.211Z,51.179241
2023-01-19T11:09:49.219Z,51.179222
2023-01-19T11:10:49.348Z,51.179230
2023-01-19T11:11:50.173Z,51.179203
2023-01-19T11:12:49.159Z,51.179176
2023-01-19T11:13:49.180Z,51.179173
2023-01-19T11:14:49.152Z,51.179157
2023-01-19T11:15:49.140Z,51.179180
2023-01-19T11:16:49.188Z,51.179180
2023-01-19T11:17:49.136Z,51.179188
2023-01-19T11:18:49.286Z,51.179214
2023-01-19T11:19:49.085Z,51.179218
2023-01-19T11:20:49.080Z,51.179214
2023-01-19T11:21:49.085Z,51.179218
2023-01-19T11:22:49.116Z,51.179214
2023-01-19T11:23:49.071Z,51.179226
2023-01-19T11:24:49.039Z,51.179226